Time;durP1;ratioP1;P1;durP2;ratioP2;P2;SDS_P1;SDS_P2;PMS_P1;PMS_P2;Temp;Humidity;BMP_temperature;BMP_pressure;BME280_temperature;BME280_humidity;BME280_pressure;Samples;Min_cycle;Max_cycle;Signal;HPM_P1;HPM_P2
2022/04/10 00:00:23;;;;;;;7.68;4.35;;;7.30;62.80;;;;;;5037866;28;20056;-92
2022/04/10 00:02:49;;;;;;;7.85;5.18;;;7.30;62.80;;;;;;5021695;28;20026;-91
2022/04/10 00:05:14;;;;;;;7.68;4.35;;;7.30;63.00;;;;;;5021940;28;20032;-92
2022/04/10 00:07:40;;;;;;;7.63;4.72;;;7.30;62.80;;;;;;5039214;28;20021;-92
2022/04/10 00:10:06;;;;;;;9.48;5.05;;;7.20;63.30;;;;;;5039338;28;20033;-91
2022/04/10 00:12:35;;;;;;;9.73;4.65;;;7.20;63.90;;;;;;5021598;28;20022;-92
2022/04/10 00:15:03;;;;;;;9.75;4.60;;;7.20;63.60;;;;;;5039176;28;20033;-92
2022/04/10 00:17:28;;;;;;;6.72;4.22;;;7.10;63.40;;;;;;5038764;28;20033;-92
2022/04/10 00:19:54;;;;;;;8.02;3.97;;;7.10;63.50;;;;;;5039113;28;20438;-92
2022/04/10 00:22:20;;;;;;;5.85;4.00;;;7.10;63.40;;;;;;5038798;28;20089;-91
2022/04/10 00:24:45;;;;;;;4.85;3.47;;;7.00;64.30;;;;;;5021256;28;20073;-92
2022/04/10 00:27:14;;;;;;;5.38;4.05;;;7.00;63.60;;;;;;5021002;28;20124;-91
2022/04/10 00:29:41;;;;;;;8.93;4.50;;;7.10;63.60;;;;;;5021160;28;20109;-92
2022/04/10 00:32:07;;;;;;;8.95;4.28;;;7.10;63.60;;;;;;5038858;28;20025;-91
2022/04/10 00:34:33;;;;;;;8.90;4.30;;;7.10;63.40;;;;;;5029941;28;20502;-92
2022/04/10 00:36:58;;;;;;;8.27;4.53;;;7.00;63.80;;;;;;5040624;28;20060;-91
2022/04/10 00:39:25;;;;;;;6.13;4.07;;;6.90;64.10;;;;;;5053558;28;20463;-91
2022/04/10 00:41:50;;;;;;;5.63;4.05;;;6.90;64.00;;;;;;5038718;28;20063;-93
2022/04/10 00:44:16;;;;;;;7.07;5.03;;;7.00;63.90;;;;;;5020748;28;20088;-91
2022/04/10 00:46:42;;;;;;;9.57;4.25;;;6.80;64.10;;;;;;5038909;28;20095;-92
2022/04/10 00:49:08;;;;;;;5.40;3.95;;;6.80;64.50;;;;;;5054371;28;20025;-91
2022/04/10 00:51:41;;;;;;;7.90;3.85;;;6.70;64.60;;;;;;5038376;28;20033;-91
2022/04/10 00:54:19;;;;;;;4.55;3.92;;;6.70;64.60;;;;;;5038145;28;20044;-91
2022/04/10 00:56:45;;;;;;;10.60;4.95;;;6.80;64.50;;;;;;5038715;28;20030;-92
2022/04/10 00:59:12;;;;;;;9.10;4.95;;;6.80;64.60;;;;;;5052333;28;20536;-91
2022/04/10 01:01:40;;;;;;;7.40;3.83;;;6.70;64.40;;;;;;5057508;28;20025;-92
2022/04/10 01:04:06;;;;;;;7.50;4.10;;;6.80;64.40;;;;;;5058028;28;20021;-92
2022/04/10 01:06:35;;;;;;;7.40;4.53;;;6.70;64.80;;;;;;5040358;28;20025;-92
2022/04/10 01:09:03;;;;;;;8.10;4.63;;;6.70;64.70;;;;;;5040166;28;20020;-91
2022/04/10 01:11:29;;;;;;;6.88;4.35;;;6.60;64.60;;;;;;5057801;28;20025;-91
2022/04/10 01:13:55;;;;;;;10.20;5.53;;;6.60;64.50;;;;;;5057875;28;20028;-92
2022/04/10 01:16:24;;;;;;;11.02;4.53;;;6.50;64.90;;;;;;5057559;28;20072;-91
2022/04/10 01:18:51;;;;;;;5.30;3.92;;;6.40;65.10;;;;;;5039495;28;20028;-92
2022/04/10 01:21:25;;;;;;;7.25;4.40;;;6.40;65.20;;;;;;5057781;28;20105;-92
2022/04/10 01:23:52;;;;;;;7.00;4.32;;;6.40;65.70;;;;;;5040132;28;20029;-91
2022/04/10 01:26:18;;;;;;;7.32;4.75;;;6.40;65.80;;;;;;5039626;28;20029;-91
2022/04/10 01:28:57;;;;;;;4.60;4.18;;;6.40;66.10;;;;;;5048996;28;20029;-91
2022/04/10 01:31:23;;;;;;;7.32;4.20;;;6.40;65.60;;;;;;5037311;28;20018;-92
2022/04/10 01:33:50;;;;;;;6.15;4.20;;;6.50;65.70;;;;;;5037902;28;20495;-92
2022/04/10 01:36:17;;;;;;;8.40;3.85;;;6.40;65.70;;;;;;5020305;28;20024;-91
2022/04/10 01:38:44;;;;;;;8.00;4.20;;;6.50;65.30;;;;;;5037643;28;20034;-92
2022/04/10 01:41:13;;;;;;;6.35;4.72;;;6.50;65.10;;;;;;5037541;28;20033;-91
2022/04/10 01:43:49;;;;;;;8.13;4.55;;;6.50;65.10;;;;;;5037492;28;20040;-91
2022/04/10 01:46:15;;;;;;;8.30;4.40;;;6.50;65.30;;;;;;5037215;28;20021;-92
2022/04/10 01:48:41;;;;;;;7.88;3.90;;;6.50;65.60;;;;;;5054158;28;20458;-92
2022/04/10 01:51:08;;;;;;;5.75;3.95;;;6.50;65.40;;;;;;5039177;28;20079;-91
2022/04/10 01:53:34;;;;;;;7.60;4.32;;;6.40;65.60;;;;;;5041440;28;20044;-90
2022/04/10 01:56:01;;;;;;;9.77;4.45;;;6.40;65.80;;;;;;5037203;28;20045;-90
2022/04/10 01:58:27;;;;;;;9.55;4.03;;;6.40;65.70;;;;;;5037684;28;20037;-90
2022/04/10 02:00:52;;;;;;;8.27;3.72;;;6.30;65.60;;;;;;5026108;28;20026;-91
2022/04/10 02:03:18;;;;;;;7.45;3.88;;;6.30;65.50;;;;;;5019635;28;20736;-91
2022/04/10 02:05:44;;;;;;;6.30;3.83;;;6.30;65.40;;;;;;5037264;28;20026;-91
2022/04/10 02:08:09;;;;;;;5.15;3.60;;;6.30;65.30;;;;;;5037520;28;20411;-90
2022/04/10 02:10:35;;;;;;;6.78;4.18;;;6.30;65.60;;;;;;5019096;28;20018;-90
2022/04/10 02:13:01;;;;;;;6.97;3.80;;;6.30;65.50;;;;;;5041221;28;20025;-90
2022/04/10 02:15:26;;;;;;;5.53;3.35;;;6.30;65.30;;;;;;5023656;28;20093;-90
2022/04/10 02:17:52;;;;;;;7.50;3.50;;;6.30;65.60;;;;;;5041124;28;20739;-91
2022/04/10 02:20:18;;;;;;;7.20;3.70;;;6.20;65.60;;;;;;5023541;28;20021;-89
2022/04/10 02:22:44;;;;;;;6.88;3.78;;;6.20;65.90;;;;;;5041033;28;20025;-90
2022/04/10 02:25:09;;;;;;;11.57;3.88;;;6.20;65.90;;;;;;5030329;28;20112;-91
2022/04/10 02:27:35;;;;;;;9.88;3.55;;;6.10;65.80;;;;;;5061003;28;20036;-90
2022/04/10 02:30:01;;;;;;;6.63;3.47;;;6.20;66.00;;;;;;5060862;28;20035;-90
2022/04/10 02:32:29;;;;;;;6.63;3.72;;;6.10;66.00;;;;;;5060754;28;20082;-91
2022/04/10 02:34:54;;;;;;;7.53;3.80;;;6.10;66.00;;;;;;5040681;28;20021;-92
2022/04/10 02:37:20;;;;;;;5.65;3.40;;;6.10;66.80;;;;;;5041124;28;20067;-91
2022/04/10 02:39:46;;;;;;;7.20;3.78;;;6.00;66.50;;;;;;5041018;28;20039;-90
2022/04/10 02:42:11;;;;;;;5.20;3.50;;;6.00;66.30;;;;;;5046801;28;20132;-90
2022/04/10 02:44:38;;;;;;;5.82;3.90;;;6.00;66.50;;;;;;5060598;28;20037;-90
2022/04/10 02:47:04;;;;;;;5.53;3.55;;;5.80;66.80;;;;;;5042801;28;20013;-90
2022/04/10 02:49:29;;;;;;;7.43;4.10;;;5.80;66.80;;;;;;5052822;28;20076;-91
2022/04/10 02:51:55;;;;;;;8.82;3.63;;;5.80;66.80;;;;;;5023025;28;20026;-90
2022/04/10 02:54:21;;;;;;;7.88;3.30;;;5.80;66.80;;;;;;5040529;28;20050;-90
2022/04/10 02:56:46;;;;;;;4.78;3.50;;;5.80;66.80;;;;;;5040170;28;20034;-90
2022/04/10 02:59:12;;;;;;;5.53;3.08;;;5.80;67.10;;;;;;5040625;28;20037;-90
2022/04/10 03:01:37;;;;;;;4.35;3.83;;;5.80;67.60;;;;;;5056577;28;20029;-90
2022/04/10 03:04:03;;;;;;;6.13;3.75;;;5.80;67.30;;;;;;5060680;28;20035;-90
2022/04/10 03:06:29;;;;;;;6.22;3.17;;;5.80;67.40;;;;;;5060081;28;20487;-91
2022/04/10 03:08:55;;;;;;;7.10;3.42;;;5.70;67.30;;;;;;5042458;28;20114;-90
2022/04/10 03:11:20;;;;;;;5.22;3.28;;;5.70;67.50;;;;;;5026021;28;20032;-90
2022/04/10 03:13:46;;;;;;;10.48;3.58;;;5.70;68.00;;;;;;5040455;28;20021;-91
2022/04/10 03:16:12;;;;;;;6.45;3.70;;;5.70;67.70;;;;;;5033946;28;20029;-90
2022/04/10 03:18:38;;;;;;;5.95;3.40;;;5.70;68.20;;;;;;5042406;28;20079;-91
2022/04/10 03:21:04;;;;;;;5.30;3.03;;;5.70;68.20;;;;;;5049130;28;20036;-90
2022/04/10 03:23:30;;;;;;;5.05;2.67;;;5.70;68.20;;;;;;5039415;28;20064;-90
2022/04/10 03:25:55;;;;;;;6.32;3.30;;;5.70;68.40;;;;;;5021782;28;20025;-90
2022/04/10 03:28:21;;;;;;;3.65;3.25;;;5.70;68.20;;;;;;5039836;28;20024;-90
2022/04/10 03:30:47;;;;;;;8.93;4.32;;;5.70;68.40;;;;;;5039638;28;20037;-90
2022/04/10 03:33:13;;;;;;;7.63;3.45;;;5.70;68.10;;;;;;5040014;28;20383;-90
2022/04/10 03:35:38;;;;;;;5.20;4.00;;;5.70;67.60;;;;;;5039971;28;20026;-91
2022/04/10 03:38:04;;;;;;;10.27;3.50;;;5.70;68.10;;;;;;5039849;28;20025;-90
2022/04/10 03:40:30;;;;;;;9.98;4.03;;;5.70;68.20;;;;;;5039799;28;20060;-91
2022/04/10 03:42:56;;;;;;;9.73;3.83;;;5.70;68.20;;;;;;5039392;28;20026;-90
2022/04/10 03:45:22;;;;;;;8.13;4.20;;;5.60;68.00;;;;;;5039771;28;20029;-91
2022/04/10 03:47:48;;;;;;;6.80;3.15;;;5.60;68.00;;;;;;5049085;28;20047;-90
2022/04/10 03:50:13;;;;;;;7.20;3.60;;;5.60;68.00;;;;;;5059580;28;20024;-90
2022/04/10 03:52:39;;;;;;;7.68;4.30;;;5.60;68.60;;;;;;5049621;28;20399;-90
2022/04/10 03:55:05;;;;;;;6.72;3.42;;;5.60;68.30;;;;;;5039404;28;20467;-90
2022/04/10 03:57:31;;;;;;;5.82;3.55;;;5.60;68.50;;;;;;5021616;28;20025;-90
2022/04/10 03:59:57;;;;;;;4.65;3.17;;;5.60;68.60;;;;;;5021889;28;20034;-91
2022/04/10 04:02:23;;;;;;;7.55;3.58;;;5.60;68.60;;;;;;5039016;28;20025;-90
2022/04/10 04:04:50;;;;;;;5.30;2.92;;;5.50;68.50;;;;;;5022871;28;20388;-89
2022/04/10 04:07:16;;;;;;;7.05;2.95;;;5.50;68.70;;;;;;5059114;28;20075;-90
2022/04/10 04:09:42;;;;;;;4.75;2.42;;;5.50;68.40;;;;;;5059301;28;20017;-91
2022/04/10 04:12:08;;;;;;;5.75;3.50;;;5.50;68.30;;;;;;5059202;28;20028;-89
2022/04/10 04:14:37;;;;;;;4.45;2.88;;;5.50;68.40;;;;;;5032275;28;20025;-90
2022/04/10 04:17:03;;;;;;;6.30;3.53;;;5.50;68.30;;;;;;5039302;28;20083;-90
2022/04/10 04:19:29;;;;;;;5.75;3.05;;;5.60;68.40;;;;;;5038656;28;20033;-89
2022/04/10 04:21:54;;;;;;;5.43;3.63;;;5.50;68.60;;;;;;5038815;28;20021;-89
2022/04/10 04:24:20;;;;;;;8.15;3.05;;;5.60;68.40;;;;;;5039059;28;20025;-90
2022/04/10 04:26:46;;;;;;;4.15;3.05;;;5.60;68.50;;;;;;5021267;28;20026;-90
2022/04/10 04:29:11;;;;;;;4.30;2.88;;;5.60;68.60;;;;;;5021326;28;20029;-90
2022/04/10 04:31:37;;;;;;;4.93;3.50;;;5.60;68.10;;;;;;5038955;28;20025;-90
2022/04/10 04:34:03;;;;;;;3.53;2.80;;;5.60;68.30;;;;;;5020762;28;20057;-90
2022/04/10 04:36:28;;;;;;;6.45;3.38;;;5.60;68.10;;;;;;5038025;28;20025;-91
2022/04/10 04:38:56;;;;;;;5.05;3.13;;;5.50;68.20;;;;;;5020775;28;20063;-91
2022/04/10 04:41:22;;;;;;;5.90;2.60;;;5.50;68.50;;;;;;5038453;28;20028;-90
2022/04/10 04:43:48;;;;;;;4.55;2.75;;;5.40;68.30;;;;;;5020974;28;20037;-90
2022/04/10 04:46:14;;;;;;;7.75;2.95;;;5.50;68.20;;;;;;5038428;28;20496;-90
2022/04/10 04:48:39;;;;;;;6.40;3.38;;;5.40;68.20;;;;;;5055245;28;20387;-89
2022/04/10 04:51:05;;;;;;;4.30;3.10;;;5.40;68.30;;;;;;5040558;28;20025;-90
2022/04/10 04:53:31;;;;;;;2.85;2.53;;;5.50;68.80;;;;;;5058070;28;20384;-90
2022/04/10 04:55:56;;;;;;;6.88;2.75;;;5.50;68.80;;;;;;5036797;28;20052;-90
2022/04/10 04:58:22;;;;;;;9.32;3.65;;;5.50;68.00;;;;;;5020476;28;20030;-90
2022/04/10 05:00:48;;;;;;;4.50;3.15;;;5.50;68.40;;;;;;5050857;28;20021;-91
2022/04/10 05:03:16;;;;;;;6.03;3.22;;;5.50;68.20;;;;;;5056836;28;20089;-91
2022/04/10 05:05:42;;;;;;;6.18;3.67;;;5.30;68.30;;;;;;5058480;28;20029;-91
2022/04/10 05:08:08;;;;;;;4.65;3.25;;;5.30;68.50;;;;;;5051336;28;20724;-90
2022/04/10 05:10:33;;;;;;;5.18;2.92;;;5.20;69.10;;;;;;5058038;28;20120;-91
2022/04/10 05:12:59;;;;;;;3.75;2.60;;;5.20;69.10;;;;;;5061734;28;20063;-91
2022/04/10 05:15:25;;;;;;;5.55;3.13;;;5.20;68.90;;;;;;5073672;28;20024;-89
2022/04/10 05:17:51;;;;;;;9.75;3.33;;;5.20;69.20;;;;;;5042630;28;20085;-89
2022/04/10 05:20:17;;;;;;;7.93;3.35;;;5.30;69.20;;;;;;5049240;28;20033;-90
2022/04/10 05:22:43;;;;;;;4.30;2.90;;;5.30;68.90;;;;;;5074100;28;20043;-90
2022/04/10 05:25:09;;;;;;;4.50;2.92;;;5.30;68.90;;;;;;5068260;28;20486;-90
2022/04/10 05:27:35;;;;;;;3.80;2.78;;;5.30;69.10;;;;;;5046285;28;20104;-90
2022/04/10 05:30:01;;;;;;;7.05;3.20;;;5.30;69.10;;;;;;5067862;28;20051;-89
2022/04/10 05:32:26;;;;;;;5.90;3.00;;;5.30;68.80;;;;;;5041249;28;20028;-90
2022/04/10 05:34:52;;;;;;;7.15;2.78;;;5.40;68.80;;;;;;5057511;28;20021;-90
2022/04/10 05:37:18;;;;;;;5.50;3.10;;;5.40;68.60;;;;;;5044385;28;20076;-92
2022/04/10 05:39:43;;;;;;;4.25;2.78;;;5.40;68.70;;;;;;5058050;28;20033;-92
2022/04/10 05:42:10;;;;;;;5.95;3.33;;;5.30;68.40;;;;;;5044800;28;20029;-91
2022/04/10 05:44:35;;;;;;;7.07;3.50;;;5.30;68.40;;;;;;5057635;28;20032;-90
2022/04/10 05:47:02;;;;;;;5.95;3.08;;;5.40;68.70;;;;;;5044089;28;20017;-90
2022/04/10 05:49:28;;;;;;;3.15;2.70;;;5.40;68.90;;;;;;5037239;28;20034;-91
2022/04/10 05:51:53;;;;;;;4.60;2.97;;;5.40;68.50;;;;;;5065197;28;20026;-91
2022/04/10 05:54:19;;;;;;;5.30;3.58;;;5.50;68.40;;;;;;5059574;28;20098;-90
2022/04/10 05:56:46;;;;;;;5.60;3.40;;;5.50;68.40;;;;;;5019693;28;20049;-91
2022/04/10 05:59:12;;;;;;;3.22;2.80;;;5.50;68.20;;;;;;5019990;28;20038;-90
2022/04/10 06:01:37;;;;;;;5.40;3.78;;;5.50;68.20;;;;;;5041993;28;20497;-92
2022/04/10 06:04:03;;;;;;;8.07;3.53;;;5.50;68.20;;;;;;5060866;28;20029;-90
2022/04/10 06:06:29;;;;;;;4.93;3.35;;;5.50;68.40;;;;;;5059130;28;20029;-90
2022/04/10 06:08:54;;;;;;;5.10;3.33;;;5.30;68.50;;;;;;5057251;28;20025;-90
2022/04/10 06:11:20;;;;;;;4.53;3.47;;;5.40;68.50;;;;;;5027378;28;20385;-92
2022/04/10 06:13:46;;;;;;;6.63;3.20;;;5.40;68.80;;;;;;5037409;28;20029;-90
2022/04/10 06:16:11;;;;;;;2.42;2.05;;;5.40;68.80;;;;;;5052227;28;20049;-92
2022/04/10 06:18:37;;;;;;;7.65;3.85;;;5.30;68.90;;;;;;5052046;28;20100;-92
2022/04/10 06:21:03;;;;;;;5.45;2.50;;;5.50;69.10;;;;;;5024209;28;20036;-88
2022/04/10 06:23:29;;;;;;;5.65;3.10;;;5.50;68.70;;;;;;5037233;28;20035;-87
2022/04/10 06:25:55;;;;;;;5.03;3.53;;;5.50;68.70;;;;;;5032304;28;21536;-81
2022/04/10 06:28:20;;;;;;;4.13;2.47;;;5.50;68.50;;;;;;5049143;28;20049;-85
2022/04/10 06:30:46;;;;;;;5.93;2.65;;;5.70;68.50;;;;;;5055372;28;20070;-91
2022/04/10 06:33:13;;;;;;;5.93;2.35;;;5.70;68.30;;;;;;5039485;28;20024;-86
2022/04/10 06:35:39;;;;;;;5.45;3.60;;;5.80;67.90;;;;;;5052846;28;20026;-90
2022/04/10 06:38:05;;;;;;;4.88;1.90;;;6.00;67.60;;;;;;5044443;28;20041;-91
2022/04/10 06:40:31;;;;;;;5.22;3.05;;;6.00;67.60;;;;;;5060035;28;20595;-87
2022/04/10 06:42:57;;;;;;;10.57;4.10;;;6.10;67.40;;;;;;5044254;28;20199;-88
2022/04/10 06:45:22;;;;;;;3.03;2.28;;;6.30;67.30;;;;;;5068127;28;20246;-88
2022/04/10 06:47:48;;;;;;;5.13;2.33;;;6.30;66.60;;;;;;5048146;28;20167;-85
2022/04/10 06:50:14;;;;;;;5.55;3.85;;;6.50;66.10;;;;;;5046790;28;20416;-85
2022/04/10 06:52:40;;;;;;;6.03;3.22;;;6.70;66.30;;;;;;5039748;28;20034;-90
2022/04/10 06:55:06;;;;;;;6.28;3.40;;;6.70;65.80;;;;;;5069346;28;20096;-86
2022/04/10 06:57:31;;;;;;;4.75;3.30;;;6.70;66.10;;;;;;5059012;28;20093;-89
2022/04/10 06:59:57;;;;;;;3.53;3.05;;;6.80;65.60;;;;;;5038929;28;20032;-86
2022/04/10 07:02:23;;;;;;;6.90;2.65;;;6.90;65.40;;;;;;5044698;28;20029;-87
2022/04/10 07:04:49;;;;;;;8.18;3.65;;;6.80;65.40;;;;;;5057401;28;20021;-85
2022/04/10 07:07:14;;;;;;;3.72;2.70;;;6.90;65.80;;;;;;5041500;28;20033;-84
2022/04/10 07:09:40;;;;;;;5.93;2.60;;;6.90;65.60;;;;;;5060115;28;20072;-84
2022/04/10 07:12:06;;;;;;;8.32;3.15;;;7.00;65.80;;;;;;5036552;28;20047;-84
2022/04/10 07:14:32;;;;;;;5.53;3.63;;;7.20;65.10;;;;;;5039927;28;20056;-83
2022/04/10 07:16:57;;;;;;;4.93;3.28;;;7.20;65.30;;;;;;5039413;28;20029;-85
2022/04/10 07:19:23;;;;;;;8.27;3.50;;;7.30;65.10;;;;;;5044645;28;20033;-86
2022/04/10 07:24:33;;;;;;;8.73;3.90;;;7.80;63.60;;;;;;5058375;28;20039;-84
2022/04/10 07:26:59;;;;;;;6.55;3.63;;;8.70;61.80;;;;;;5057498;28;20405;-87
2022/04/10 07:29:24;;;;;;;4.65;3.10;;;9.20;60.00;;;;;;5066898;28;20096;-85
2022/04/10 07:31:50;;;;;;;4.53;2.83;;;9.80;58.40;;;;;;5057640;28;20074;-84
2022/04/10 07:34:16;;;;;;;7.15;3.22;;;10.20;56.10;;;;;;5063699;28;20052;-83
2022/04/10 07:36:41;;;;;;;6.93;3.90;;;10.50;55.80;;;;;;5064175;28;20033;-83
2022/04/10 07:39:08;;;;;;;4.72;3.53;;;11.90;53.40;;;;;;5066836;28;20040;-85
2022/04/10 07:41:34;;;;;;;6.63;4.63;;;14.20;46.40;;;;;;5038485;28;20078;-85
2022/04/10 07:43:59;;;;;;;5.82;3.40;;;16.30;43.00;;;;;;5053877;28;20032;-85
2022/04/10 07:49:09;;;;;;;5.65;3.22;;;18.50;37.10;;;;;;5063542;28;20411;-82
2022/04/10 07:51:35;;;;;;;4.35;3.25;;;19.20;35.30;;;;;;5032214;28;20033;-89
2022/04/10 07:54:01;;;;;;;3.80;3.08;;;19.80;34.00;;;;;;5056546;28;20028;-85
2022/04/10 07:56:26;;;;;;;6.22;3.30;;;20.60;33.40;;;;;;5066755;28;20080;-85
2022/04/10 07:58:52;;;;;;;6.68;3.28;;;21.30;31.90;;;;;;5059750;28;20025;-85
2022/04/10 08:01:20;;;;;;;5.85;3.03;;;22.30;31.60;;;;;;5075173;28;20082;-86
2022/04/10 08:03:51;;;;;;;5.63;3.60;;;22.30;31.50;;;;;;5041755;28;20051;-87
2022/04/10 08:06:18;;;;;;;5.45;3.60;;;22.80;29.80;;;;;;5036848;28;20041;-87
2022/04/10 08:08:43;;;;;;;4.30;2.80;;;23.10;29.10;;;;;;5058367;28;20542;-89
2022/04/10 08:11:09;;;;;;;4.55;3.40;;;23.40;28.40;;;;;;5054173;28;20120;-87
2022/04/10 08:13:35;;;;;;;5.00;3.45;;;23.40;29.20;;;;;;5053184;28;20025;-91
2022/04/10 08:16:01;;;;;;;4.47;3.20;;;24.10;28.30;;;;;;5041051;28;20037;-79
2022/04/10 08:18:27;;;;;;;3.92;2.53;;;24.30;27.40;;;;;;5044080;28;20087;-84
2022/04/10 08:20:53;;;;;;;4.57;2.63;;;22.90;28.40;;;;;;5066923;28;20585;-83
2022/04/10 08:23:18;;;;;;;4.22;2.45;;;23.70;28.30;;;;;;5052590;28;20052;-82
2022/04/10 08:25:44;;;;;;;4.50;3.08;;;24.00;28.10;;;;;;5035723;28;20036;-82
2022/04/10 08:28:09;;;;;;;5.18;2.80;;;24.40;27.60;;;;;;5036058;28;20034;-82
2022/04/10 08:30:35;;;;;;;4.97;2.50;;;24.30;27.20;;;;;;5036200;28;20036;-82
2022/04/10 08:33:01;;;;;;;5.45;2.42;;;24.00;27.40;;;;;;5036278;28;20084;-82
2022/04/10 08:35:27;;;;;;;5.80;2.45;;;24.20;26.60;;;;;;5035675;28;20053;-82
2022/04/10 08:37:53;;;;;;;4.95;2.42;;;23.80;28.10;;;;;;5035531;28;20400;-83
2022/04/10 08:40:19;;;;;;;3.13;2.15;;;23.90;26.60;;;;;;5018361;28;20061;-82
2022/04/10 08:42:45;;;;;;;4.57;2.17;;;24.00;27.20;;;;;;5047452;28;20083;-82
2022/04/10 08:45:11;;;;;;;4.60;2.30;;;23.80;26.70;;;;;;5055792;28;20103;-82
2022/04/10 08:47:39;;;;;;;3.95;2.55;;;23.70;28.30;;;;;;5045072;28;20130;-81
2022/04/10 08:50:06;;;;;;;3.05;2.03;;;24.10;27.90;;;;;;5055394;28;20033;-81
2022/04/10 08:52:33;;;;;;;5.80;2.58;;;23.80;26.90;;;;;;5055833;28;20523;-81
2022/04/10 08:54:59;;;;;;;4.53;2.50;;;23.70;28.40;;;;;;5053846;28;20053;-80
2022/04/10 08:58:55;;;;;;;5.63;2.28;;;23.70;27.30;;;;;;5112912;27;20369;-82
2022/04/10 09:01:50;;;;;;;5.05;2.28;;;24.20;28.50;;;;;;5071258;28;20371;-80
2022/04/10 09:04:16;;;;;;;4.63;2.40;;;24.30;27.80;;;;;;5066625;28;20025;-80
2022/04/10 09:06:56;;;;;;;4.82;2.22;;;24.10;27.40;;;;;;5070920;28;20031;-79
2022/04/10 09:09:22;;;;;;;6.18;2.83;;;23.80;27.40;;;;;;5071780;28;20067;-79
2022/04/10 09:11:47;;;;;;;3.58;2.50;;;23.80;27.90;;;;;;5060197;28;20029;-79
2022/04/10 09:14:24;;;;;;;3.83;2.17;;;22.80;29.20;;;;;;5071441;28;20017;-80
2022/04/10 09:17:18;;;;;;;2.58;1.90;;;23.00;29.30;;;;;;5066917;28;20029;-79
2022/04/10 09:19:48;;;;;;;4.68;2.30;;;23.60;27.70;;;;;;5070692;28;20040;-79
2022/04/10 09:22:24;;;;;;;4.13;2.08;;;23.00;27.90;;;;;;5057728;28;20031;-80
2022/04/10 09:25:14;;;;;;;4.25;2.40;;;22.30;28.40;;;;;;5069661;28;20092;-85
2022/04/10 09:27:43;;;;;;;3.40;2.28;;;22.80;29.50;;;;;;5057769;28;20032;-80
2022/04/10 09:30:13;;;;;;;3.40;2.30;;;23.30;28.30;;;;;;5070542;28;20127;-78
2022/04/10 09:32:51;;;;;;;5.18;2.10;;;23.10;28.20;;;;;;5067900;28;20107;-78
2022/04/10 09:35:19;;;;;;;3.53;2.00;;;23.30;27.40;;;;;;5051334;28;20079;-78
2022/04/10 09:37:52;;;;;;;3.75;1.80;;;23.80;27.60;;;;;;5051105;28;20087;-78
2022/04/10 09:40:28;;;;;;;4.10;2.25;;;23.80;26.90;;;;;;5056392;28;20056;-78
2022/04/10 09:43:04;;;;;;;4.65;2.05;;;23.50;27.20;;;;;;5071354;28;20086;-78
2022/04/10 09:45:41;;;;;;;3.72;1.75;;;23.30;27.00;;;;;;5065819;28;20028;-79
2022/04/10 09:48:23;;;;;;;3.33;1.67;;;22.80;28.20;;;;;;5068735;28;20025;-78
2022/04/10 09:50:53;;;;;;;2.38;1.60;;;22.80;28.40;;;;;;5068228;28;20075;-81
2022/04/10 09:53:20;;;;;;;4.78;1.67;;;23.00;28.60;;;;;;5067877;28;20507;-78
2022/04/10 09:56:10;;;;;;;2.33;1.52;;;23.00;27.50;;;;;;5067838;28;20033;-79
2022/04/10 09:58:36;;;;;;;2.92;1.40;;;22.60;28.50;;;;;;5067934;28;20040;-78
2022/04/10 10:01:04;;;;;;;2.60;1.50;;;22.80;28.50;;;;;;5068601;28;20120;-78
2022/04/10 10:03:30;;;;;;;5.53;1.98;;;22.90;26.20;;;;;;5063174;28;20020;-78
2022/04/10 10:05:58;;;;;;;6.05;1.92;;;22.70;27.70;;;;;;5060618;28;20025;-77
2022/04/10 10:08:25;;;;;;;4.93;2.28;;;22.20;28.10;;;;;;5066329;28;20075;-77
2022/04/10 10:10:50;;;;;;;2.70;1.58;;;21.70;30.50;;;;;;5064261;28;20024;-79
2022/04/10 10:13:16;;;;;;;3.97;1.85;;;21.50;28.90;;;;;;5057177;28;20704;-82
2022/04/10 10:15:43;;;;;;;4.00;1.45;;;21.30;29.30;;;;;;5058145;28;20372;-78
2022/04/10 10:18:11;;;;;;;2.65;1.40;;;21.20;29.80;;;;;;5057692;28;20344;-78
2022/04/10 10:20:40;;;;;;;4.50;1.50;;;21.10;29.00;;;;;;5040144;28;20037;-78
2022/04/10 10:23:11;;;;;;;3.13;1.50;;;20.30;30.60;;;;;;5037836;28;20022;-78
2022/04/10 10:25:47;;;;;;;4.47;1.52;;;19.70;32.00;;;;;;5041199;28;20065;-78
2022/04/10 10:28:22;;;;;;;3.45;1.67;;;18.60;33.80;;;;;;5055346;28;20021;-78
2022/04/10 10:31:16;;;;;;;3.33;1.25;;;17.90;35.90;;;;;;5057490;28;20056;-78
2022/04/10 10:33:51;;;;;;;3.25;1.40;;;16.90;35.10;;;;;;5052177;28;20025;-78
2022/04/10 10:36:26;;;;;;;1.85;1.25;;;16.90;36.70;;;;;;5037430;28;20037;-78
2022/04/10 10:38:54;;;;;;;2.47;1.42;;;16.80;36.70;;;;;;5037125;28;20060;-78
2022/04/10 10:41:20;;;;;;;2.90;1.25;;;16.30;38.00;;;;;;5056737;28;20384;-78
2022/04/10 10:43:47;;;;;;;4.30;1.83;;;16.00;37.30;;;;;;5056974;28;20045;-78
2022/04/10 10:46:22;;;;;;;3.33;1.40;;;16.10;37.90;;;;;;5057117;28;20021;-78
2022/04/10 10:48:50;;;;;;;2.55;1.38;;;16.10;39.30;;;;;;5054853;28;20028;-78
2022/04/10 10:51:16;;;;;;;2.47;1.45;;;15.90;37.10;;;;;;5057087;28;20021;-78
2022/04/10 10:53:44;;;;;;;3.75;1.55;;;15.80;38.80;;;;;;5057156;28;20025;-78
2022/04/10 10:56:40;;;;;;;3.95;1.55;;;15.80;38.10;;;;;;5050814;28;20517;-78
2022/04/10 10:59:31;;;;;;;3.65;1.27;;;15.80;37.50;;;;;;5034672;28;20033;-78
2022/04/10 11:02:02;;;;;;;3.20;1.33;;;15.70;37.10;;;;;;5056940;28;20096;-79
2022/04/10 11:04:38;;;;;;;2.92;1.27;;;15.60;38.80;;;;;;5055471;28;20456;-78
2022/04/10 11:07:18;;;;;;;2.00;1.40;;;15.60;39.10;;;;;;5051315;28;20496;-79
2022/04/10 11:10:04;;;;;;;3.83;1.10;;;15.30;39.40;;;;;;5037022;28;20522;-78
2022/04/10 11:12:34;;;;;;;4.25;1.45;;;15.40;37.70;;;;;;5052931;28;20025;-78
2022/04/10 11:15:16;;;;;;;1.77;1.07;;;15.30;37.80;;;;;;5051827;28;20075;-78
2022/04/10 11:17:41;;;;;;;2.20;1.30;;;15.40;38.30;;;;;;5036753;28;20081;-79
2022/04/10 11:20:09;;;;;;;5.63;1.70;;;15.60;39.30;;;;;;5036288;28;20555;-79
2022/04/10 11:22:49;;;;;;;1.55;0.98;;;15.70;39.20;;;;;;5036409;28;20025;-78
2022/04/10 11:25:18;;;;;;;1.40;0.93;;;15.60;38.60;;;;;;5035729;28;20061;-78
2022/04/10 11:27:48;;;;;;;1.90;1.20;;;15.70;38.40;;;;;;5036466;28;20082;-78
2022/04/10 11:30:19;;;;;;;1.65;1.13;;;15.80;38.70;;;;;;5036303;28;20056;-78
2022/04/10 11:32:52;;;;;;;3.28;1.45;;;15.70;38.40;;;;;;5036400;28;20034;-78
2022/04/10 11:35:20;;;;;;;1.95;1.30;;;15.70;39.30;;;;;;5036306;28;20041;-78
2022/04/10 11:37:52;;;;;;;7.97;1.63;;;15.70;39.00;;;;;;5036017;28;20022;-78
2022/04/10 11:40:20;;;;;;;1.58;0.98;;;15.80;39.80;;;;;;5046017;28;20139;-78
2022/04/10 11:42:46;;;;;;;5.25;1.42;;;15.80;37.80;;;;;;5056161;28;20025;-77
2022/04/10 11:45:12;;;;;;;4.38;1.27;;;15.80;39.10;;;;;;5054792;28;20025;-78
2022/04/10 11:47:40;;;;;;;2.25;1.40;;;15.90;38.00;;;;;;5044177;28;20032;-80
2022/04/10 11:50:08;;;;;;;1.83;1.35;;;15.80;38.00;;;;;;5055968;28;20032;-78
2022/04/10 11:52:34;;;;;;;3.03;1.02;;;15.80;39.10;;;;;;5054832;28;20056;-79
2022/04/10 11:54:59;;;;;;;1.42;0.80;;;15.70;38.40;;;;;;5055781;28;20037;-79
2022/04/10 11:57:25;;;;;;;2.25;1.30;;;15.70;38.50;;;;;;5039798;28;20036;-79
2022/04/10 11:59:51;;;;;;;3.63;1.52;;;15.90;38.10;;;;;;5041408;28;20048;-78
2022/04/10 12:02:17;;;;;;;3.85;1.67;;;15.80;38.50;;;;;;5035931;28;20036;-79
2022/04/10 12:04:43;;;;;;;1.83;1.40;;;15.80;37.50;;;;;;5035789;28;20128;-79
2022/04/10 12:07:13;;;;;;;2.58;1.40;;;15.80;39.10;;;;;;5035676;28;20092;-78
2022/04/10 12:09:42;;;;;;;2.03;1.20;;;15.90;39.60;;;;;;5035644;28;20132;-78
2022/04/10 12:12:08;;;;;;;3.17;1.37;;;15.90;39.70;;;;;;5050133;28;20132;-81
2022/04/10 12:14:35;;;;;;;2.72;0.90;;;15.80;38.20;;;;;;5036414;28;20307;-78
2022/04/10 12:17:00;;;;;;;3.40;1.70;;;15.80;37.70;;;;;;5043167;28;20024;-80
2022/04/10 12:19:36;;;;;;;3.10;1.20;;;15.90;39.00;;;;;;5044232;28;20502;-80
2022/04/10 12:22:09;;;;;;;3.40;1.20;;;15.80;37.30;;;;;;5051509;28;20110;-81
2022/04/10 12:24:37;;;;;;;2.28;1.20;;;15.80;39.80;;;;;;5055306;28;20032;-80
2022/04/10 12:27:06;;;;;;;2.50;1.77;;;15.90;38.60;;;;;;5055230;28;20025;-81
2022/04/10 12:29:34;;;;;;;2.30;1.45;;;15.80;38.40;;;;;;5047816;28;20063;-79
2022/04/10 12:32:00;;;;;;;2.60;1.02;;;16.00;40.50;;;;;;5043874;28;20033;-80
2022/04/10 12:34:39;;;;;;;2.40;1.35;;;15.90;38.60;;;;;;5047970;28;20013;-77
2022/04/10 12:37:13;;;;;;;1.63;1.38;;;15.90;37.60;;;;;;5052135;28;20028;-79
2022/04/10 12:39:40;;;;;;;2.53;1.38;;;15.90;38.00;;;;;;5054796;28;20021;-77
2022/04/10 12:42:13;;;;;;;4.18;1.48;;;16.00;38.70;;;;;;5055035;28;20086;-79
2022/04/10 12:44:40;;;;;;;3.40;1.60;;;16.20;39.80;;;;;;5053907;28;20025;-75
2022/04/10 12:47:08;;;;;;;3.25;1.50;;;16.20;39.00;;;;;;5054477;28;20027;-77
2022/04/10 12:49:35;;;;;;;2.15;1.52;;;16.20;38.60;;;;;;5034943;28;20060;-78
2022/04/10 12:52:04;;;;;;;1.50;1.25;;;16.20;38.60;;;;;;5052408;28;20071;-79
2022/04/10 12:54:33;;;;;;;2.28;1.25;;;16.20;37.90;;;;;;5040198;28;20081;-80
2022/04/10 12:56:59;;;;;;;4.55;2.10;;;16.20;38.70;;;;;;5033587;28;20033;-79
2022/04/10 12:59:46;;;;;;;3.25;1.38;;;16.10;38.20;;;;;;5040055;28;20093;-85
2022/04/10 13:02:21;;;;;;;1.50;1.20;;;16.10;38.20;;;;;;5048601;28;20225;-85